You are not logged in, Click here to log in
ICAO: ZSOF Country: 中華人民共和國安徽省合肥市包河区
Latitude: 31.78 Longitude: 117.308
Total Arrivals: 3 Total Departures: 3
Latest Arrival: CI8027 (RCTP-ZSOF)Lun. Wang Latest Departure: CI8028 (ZSOF-RCTP)Lun. Wang
Scenery:
METAR : ZSOF 261100Z 19002MPS 140V220 CAVOK 25/22 Q1003 NOSIG

合肥駱崗機場